sensor_id;sensor_type;location;lat;lon;timestamp;P1;durP1;ratioP1;P2;durP2;ratioP2
60730;SDS011;46580;52.114;11.674;2023-03-16T00:01:55;4.33;;;1.53;;
60730;SDS011;46580;52.114;11.674;2023-03-16T00:04:21;5.57;;;1.70;;
60730;SDS011;46580;52.114;11.674;2023-03-16T00:06:47;5.57;;;1.37;;
60730;SDS011;46580;52.114;11.674;2023-03-16T00:09:13;4.20;;;1.90;;
60730;SDS011;46580;52.114;11.674;2023-03-16T00:11:39;3.97;;;1.83;;
60730;SDS011;46580;52.114;11.674;2023-03-16T00:14:05;7.67;;;1.93;;
60730;SDS011;46580;52.114;11.674;2023-03-16T00:16:31;5.40;;;1.83;;
60730;SDS011;46580;52.114;11.674;2023-03-16T00:18:57;2.53;;;1.47;;
60730;SDS011;46580;52.114;11.674;2023-03-16T00:21:23;3.20;;;1.73;;
60730;SDS011;46580;52.114;11.674;2023-03-16T00:23:49;9.37;;;2.10;;
60730;SDS011;46580;52.114;11.674;2023-03-16T00:26:15;3.20;;;2.07;;
60730;SDS011;46580;52.114;11.674;2023-03-16T00:28:41;3.03;;;1.73;;
60730;SDS011;46580;52.114;11.674;2023-03-16T00:31:08;3.57;;;1.80;;
60730;SDS011;46580;52.114;11.674;2023-03-16T00:33:36;7.17;;;1.90;;
60730;SDS011;46580;52.114;11.674;2023-03-16T00:36:04;2.83;;;1.63;;
60730;SDS011;46580;52.114;11.674;2023-03-16T00:38:34;4.07;;;1.60;;
60730;SDS011;46580;52.114;11.674;2023-03-16T00:41:04;3.37;;;1.50;;
60730;SDS011;46580;52.114;11.674;2023-03-16T00:43:33;4.50;;;2.00;;
60730;SDS011;46580;52.114;11.674;2023-03-16T00:46:08;8.33;;;1.77;;
60730;SDS011;46580;52.114;11.674;2023-03-16T00:48:35;5.30;;;1.77;;
60730;SDS011;46580;52.114;11.674;2023-03-16T00:51:03;4.20;;;1.33;;
60730;SDS011;46580;52.114;11.674;2023-03-16T00:53:32;2.37;;;1.30;;
60730;SDS011;46580;52.114;11.674;2023-03-16T00:55:59;2.50;;;1.30;;
60730;SDS011;46580;52.114;11.674;2023-03-16T00:58:28;5.60;;;1.67;;
60730;SDS011;46580;52.114;11.674;2023-03-16T01:00:59;6.20;;;1.67;;
60730;SDS011;46580;52.114;11.674;2023-03-16T01:03:33;6.87;;;1.60;;
60730;SDS011;46580;52.114;11.674;2023-03-16T01:06:03;6.20;;;1.67;;
60730;SDS011;46580;52.114;11.674;2023-03-16T01:08:30;5.63;;;1.50;;
60730;SDS011;46580;52.114;11.674;2023-03-16T01:11:00;4.57;;;1.43;;
60730;SDS011;46580;52.114;11.674;2023-03-16T01:13:29;4.37;;;1.30;;
60730;SDS011;46580;52.114;11.674;2023-03-16T01:15:56;3.43;;;1.60;;
60730;SDS011;46580;52.114;11.674;2023-03-16T01:18:22;4.97;;;1.30;;
60730;SDS011;46580;52.114;11.674;2023-03-16T01:20:49;4.83;;;1.30;;
60730;SDS011;46580;52.114;11.674;2023-03-16T01:23:18;5.23;;;1.40;;
60730;SDS011;46580;52.114;11.674;2023-03-16T01:25:45;6.63;;;1.33;;
60730;SDS011;46580;52.114;11.674;2023-03-16T01:28:29;6.03;;;1.40;;
60730;SDS011;46580;52.114;11.674;2023-03-16T01:30:58;3.40;;;1.40;;
60730;SDS011;46580;52.114;11.674;2023-03-16T01:33:28;6.00;;;1.63;;
60730;SDS011;46580;52.114;11.674;2023-03-16T01:35:55;3.23;;;1.37;;
60730;SDS011;46580;52.114;11.674;2023-03-16T01:38:23;6.30;;;1.10;;
60730;SDS011;46580;52.114;11.674;2023-03-16T01:40:50;2.00;;;1.00;;
60730;SDS011;46580;52.114;11.674;2023-03-16T01:43:17;6.93;;;1.33;;
60730;SDS011;46580;52.114;11.674;2023-03-16T01:51:02;6.23;;;1.33;;
60730;SDS011;46580;52.114;11.674;2023-03-16T01:53:31;3.07;;;1.60;;
60730;SDS011;46580;52.114;11.674;2023-03-16T01:56:00;4.50;;;1.40;;
60730;SDS011;46580;52.114;11.674;2023-03-16T01:58:29;4.77;;;1.40;;
60730;SDS011;46580;52.114;11.674;2023-03-16T02:00:56;4.03;;;2.00;;
60730;SDS011;46580;52.114;11.674;2023-03-16T02:03:23;3.10;;;1.23;;
60730;SDS011;46580;52.114;11.674;2023-03-16T02:05:58;3.67;;;1.20;;
60730;SDS011;46580;52.114;11.674;2023-03-16T02:08:27;4.83;;;1.10;;
60730;SDS011;46580;52.114;11.674;2023-03-16T02:10:53;6.63;;;1.80;;
60730;SDS011;46580;52.114;11.674;2023-03-16T02:13:21;4.73;;;1.30;;
60730;SDS011;46580;52.114;11.674;2023-03-16T02:15:47;3.73;;;1.50;;
60730;SDS011;46580;52.114;11.674;2023-03-16T02:18:14;4.73;;;1.30;;
60730;SDS011;46580;52.114;11.674;2023-03-16T02:20:41;3.40;;;1.47;;
60730;SDS011;46580;52.114;11.674;2023-03-16T02:23:12;3.57;;;1.10;;
60730;SDS011;46580;52.114;11.674;2023-03-16T02:28:17;3.47;;;1.30;;
60730;SDS011;46580;52.114;11.674;2023-03-16T02:30:47;3.70;;;1.07;;
60730;SDS011;46580;52.114;11.674;2023-03-16T02:33:13;4.63;;;1.60;;
60730;SDS011;46580;52.114;11.674;2023-03-16T02:35:40;5.97;;;1.20;;
60730;SDS011;46580;52.114;11.674;2023-03-16T02:38:07;3.47;;;1.20;;
60730;SDS011;46580;52.114;11.674;2023-03-16T02:40:34;1.97;;;1.20;;
60730;SDS011;46580;52.114;11.674;2023-03-16T02:43:03;3.97;;;1.10;;
60730;SDS011;46580;52.114;11.674;2023-03-16T02:45:52;2.53;;;1.23;;
60730;SDS011;46580;52.114;11.674;2023-03-16T02:48:20;4.17;;;1.30;;
60730;SDS011;46580;52.114;11.674;2023-03-16T02:50:51;2.00;;;1.03;;
60730;SDS011;46580;52.114;11.674;2023-03-16T02:53:19;1.20;;;0.93;;
60730;SDS011;46580;52.114;11.674;2023-03-16T02:55:45;1.70;;;1.07;;
60730;SDS011;46580;52.114;11.674;2023-03-16T02:58:11;1.57;;;0.73;;
60730;SDS011;46580;52.114;11.674;2023-03-16T03:00:38;3.23;;;0.97;;
60730;SDS011;46580;52.114;11.674;2023-03-16T03:03:04;9.10;;;1.57;;
60730;SDS011;46580;52.114;11.674;2023-03-16T03:05:35;1.73;;;0.87;;
60730;SDS011;46580;52.114;11.674;2023-03-16T03:08:01;2.57;;;1.20;;
60730;SDS011;46580;52.114;11.674;2023-03-16T03:10:27;3.03;;;1.23;;
60730;SDS011;46580;52.114;11.674;2023-03-16T03:12:52;4.33;;;1.50;;
60730;SDS011;46580;52.114;11.674;2023-03-16T03:15:22;3.27;;;1.30;;
60730;SDS011;46580;52.114;11.674;2023-03-16T03:17:47;3.10;;;1.17;;
60730;SDS011;46580;52.114;11.674;2023-03-16T03:20:13;4.63;;;1.20;;
60730;SDS011;46580;52.114;11.674;2023-03-16T03:22:43;3.63;;;1.40;;
60730;SDS011;46580;52.114;11.674;2023-03-16T03:25:10;5.30;;;1.33;;
60730;SDS011;46580;52.114;11.674;2023-03-16T03:27:38;7.53;;;1.77;;
60730;SDS011;46580;52.114;11.674;2023-03-16T03:30:06;4.70;;;1.67;;
60730;SDS011;46580;52.114;11.674;2023-03-16T03:32:40;3.73;;;1.10;;
60730;SDS011;46580;52.114;11.674;2023-03-16T03:35:08;3.20;;;1.40;;
60730;SDS011;46580;52.114;11.674;2023-03-16T03:37:36;4.30;;;1.77;;
60730;SDS011;46580;52.114;11.674;2023-03-16T03:40:02;3.13;;;1.43;;
60730;SDS011;46580;52.114;11.674;2023-03-16T03:42:35;5.60;;;1.20;;
60730;SDS011;46580;52.114;11.674;2023-03-16T03:45:01;4.90;;;1.10;;
60730;SDS011;46580;52.114;11.674;2023-03-16T03:47:27;2.77;;;1.10;;
60730;SDS011;46580;52.114;11.674;2023-03-16T03:49:53;4.30;;;1.70;;
60730;SDS011;46580;52.114;11.674;2023-03-16T03:52:18;3.73;;;1.67;;
60730;SDS011;46580;52.114;11.674;2023-03-16T03:54:44;2.37;;;1.20;;
60730;SDS011;46580;52.114;11.674;2023-03-16T03:57:10;4.63;;;1.30;;
60730;SDS011;46580;52.114;11.674;2023-03-16T03:59:35;3.27;;;1.17;;
60730;SDS011;46580;52.114;11.674;2023-03-16T04:02:06;2.80;;;1.50;;
60730;SDS011;46580;52.114;11.674;2023-03-16T04:04:34;3.77;;;1.53;;
60730;SDS011;46580;52.114;11.674;2023-03-16T04:06:59;2.80;;;1.60;;
60730;SDS011;46580;52.114;11.674;2023-03-16T04:09:25;2.87;;;1.30;;
60730;SDS011;46580;52.114;11.674;2023-03-16T04:11:50;5.60;;;1.47;;
60730;SDS011;46580;52.114;11.674;2023-03-16T04:14:17;3.47;;;1.50;;
60730;SDS011;46580;52.114;11.674;2023-03-16T04:16:43;2.47;;;1.27;;
60730;SDS011;46580;52.114;11.674;2023-03-16T04:19:09;2.37;;;1.40;;
60730;SDS011;46580;52.114;11.674;2023-03-16T04:21:36;7.23;;;1.70;;
60730;SDS011;46580;52.114;11.674;2023-03-16T04:24:02;4.13;;;1.50;;
60730;SDS011;46580;52.114;11.674;2023-03-16T04:26:31;3.73;;;1.30;;
60730;SDS011;46580;52.114;11.674;2023-03-16T04:28:58;4.47;;;1.30;;
60730;SDS011;46580;52.114;11.674;2023-03-16T04:31:27;10.23;;;1.43;;
60730;SDS011;46580;52.114;11.674;2023-03-16T04:33:53;3.30;;;1.33;;
60730;SDS011;46580;52.114;11.674;2023-03-16T04:36:19;5.60;;;1.10;;
60730;SDS011;46580;52.114;11.674;2023-03-16T04:38:48;3.23;;;1.20;;
60730;SDS011;46580;52.114;11.674;2023-03-16T04:41:15;2.20;;;1.13;;
60730;SDS011;46580;52.114;11.674;2023-03-16T04:43:41;2.13;;;1.20;;
60730;SDS011;46580;52.114;11.674;2023-03-16T04:46:08;5.33;;;1.30;;
60730;SDS011;46580;52.114;11.674;2023-03-16T04:48:35;2.60;;;1.33;;
60730;SDS011;46580;52.114;11.674;2023-03-16T04:51:01;3.90;;;1.40;;
60730;SDS011;46580;52.114;11.674;2023-03-16T04:53:28;2.27;;;1.30;;
60730;SDS011;46580;52.114;11.674;2023-03-16T04:55:56;2.60;;;1.17;;
60730;SDS011;46580;52.114;11.674;2023-03-16T04:58:21;3.10;;;1.50;;
60730;SDS011;46580;52.114;11.674;2023-03-16T05:00:47;5.07;;;1.23;;
60730;SDS011;46580;52.114;11.674;2023-03-16T05:03:13;2.77;;;1.20;;
60730;SDS011;46580;52.114;11.674;2023-03-16T05:05:40;6.13;;;1.30;;
60730;SDS011;46580;52.114;11.674;2023-03-16T05:08:06;7.67;;;1.70;;
60730;SDS011;46580;52.114;11.674;2023-03-16T05:10:35;6.00;;;1.43;;
60730;SDS011;46580;52.114;11.674;2023-03-16T05:13:00;4.67;;;1.40;;
60730;SDS011;46580;52.114;11.674;2023-03-16T05:15:27;4.43;;;1.30;;
60730;SDS011;46580;52.114;11.674;2023-03-16T05:17:53;2.70;;;1.80;;
60730;SDS011;46580;52.114;11.674;2023-03-16T05:20:23;2.43;;;1.30;;
60730;SDS011;46580;52.114;11.674;2023-03-16T05:22:48;4.20;;;1.50;;
60730;SDS011;46580;52.114;11.674;2023-03-16T05:25:15;2.20;;;1.50;;
60730;SDS011;46580;52.114;11.674;2023-03-16T05:27:49;3.50;;;1.20;;
60730;SDS011;46580;52.114;11.674;2023-03-16T05:30:17;2.87;;;1.53;;
60730;SDS011;46580;52.114;11.674;2023-03-16T05:32:43;5.70;;;1.90;;
60730;SDS011;46580;52.114;11.674;2023-03-16T05:35:09;5.20;;;1.50;;
60730;SDS011;46580;52.114;11.674;2023-03-16T05:37:37;3.67;;;1.43;;
60730;SDS011;46580;52.114;11.674;2023-03-16T05:40:04;4.20;;;1.60;;
60730;SDS011;46580;52.114;11.674;2023-03-16T05:42:54;2.23;;;1.30;;
60730;SDS011;46580;52.114;11.674;2023-03-16T05:45:21;6.30;;;1.47;;
60730;SDS011;46580;52.114;11.674;2023-03-16T05:47:47;3.47;;;1.50;;
60730;SDS011;46580;52.114;11.674;2023-03-16T05:50:13;3.10;;;1.13;;
60730;SDS011;46580;52.114;11.674;2023-03-16T05:52:41;8.27;;;1.97;;
60730;SDS011;46580;52.114;11.674;2023-03-16T05:55:08;5.97;;;2.17;;
60730;SDS011;46580;52.114;11.674;2023-03-16T05:57:34;7.10;;;1.70;;
60730;SDS011;46580;52.114;11.674;2023-03-16T06:00:02;4.10;;;2.03;;
60730;SDS011;46580;52.114;11.674;2023-03-16T06:02:41;4.23;;;1.60;;
60730;SDS011;46580;52.114;11.674;2023-03-16T06:05:07;4.33;;;1.53;;
60730;SDS011;46580;52.114;11.674;2023-03-16T06:07:34;6.57;;;2.50;;
60730;SDS011;46580;52.114;11.674;2023-03-16T06:10:01;7.13;;;2.00;;
60730;SDS011;46580;52.114;11.674;2023-03-16T06:12:29;7.93;;;1.93;;
60730;SDS011;46580;52.114;11.674;2023-03-16T06:14:55;5.57;;;2.23;;
60730;SDS011;46580;52.114;11.674;2023-03-16T06:17:21;3.53;;;1.67;;
60730;SDS011;46580;52.114;11.674;2023-03-16T06:19:47;3.50;;;1.87;;
60730;SDS011;46580;52.114;11.674;2023-03-16T06:22:13;6.70;;;2.33;;
60730;SDS011;46580;52.114;11.674;2023-03-16T06:24:39;2.57;;;1.23;;
60730;SDS011;46580;52.114;11.674;2023-03-16T06:27:05;6.03;;;2.00;;
60730;SDS011;46580;52.114;11.674;2023-03-16T06:29:31;3.90;;;1.77;;
60730;SDS011;46580;52.114;11.674;2023-03-16T06:31:57;7.33;;;1.90;;
60730;SDS011;46580;52.114;11.674;2023-03-16T06:34:22;2.63;;;1.60;;
60730;SDS011;46580;52.114;11.674;2023-03-16T06:36:49;3.13;;;1.77;;
60730;SDS011;46580;52.114;11.674;2023-03-16T06:39:15;2.03;;;1.30;;
60730;SDS011;46580;52.114;11.674;2023-03-16T06:41:40;2.50;;;1.40;;
60730;SDS011;46580;52.114;11.674;2023-03-16T06:44:08;3.47;;;1.90;;
60730;SDS011;46580;52.114;11.674;2023-03-16T06:46:35;4.37;;;1.80;;
60730;SDS011;46580;52.114;11.674;2023-03-16T06:49:01;6.73;;;1.87;;
60730;SDS011;46580;52.114;11.674;2023-03-16T06:51:28;4.07;;;2.00;;
60730;SDS011;46580;52.114;11.674;2023-03-16T06:53:53;4.53;;;1.90;;
60730;SDS011;46580;52.114;11.674;2023-03-16T06:56:19;3.83;;;1.80;;
60730;SDS011;46580;52.114;11.674;2023-03-16T06:58:44;3.43;;;1.60;;
60730;SDS011;46580;52.114;11.674;2023-03-16T07:01:11;3.50;;;1.83;;
60730;SDS011;46580;52.114;11.674;2023-03-16T07:03:37;6.33;;;2.47;;
60730;SDS011;46580;52.114;11.674;2023-03-16T07:06:03;5.50;;;2.20;;
60730;SDS011;46580;52.114;11.674;2023-03-16T07:08:29;3.43;;;1.93;;
60730;SDS011;46580;52.114;11.674;2023-03-16T07:10:55;8.77;;;2.00;;
60730;SDS011;46580;52.114;11.674;2023-03-16T07:13:20;4.07;;;1.80;;
60730;SDS011;46580;52.114;11.674;2023-03-16T07:15:48;4.67;;;1.60;;
60730;SDS011;46580;52.114;11.674;2023-03-16T07:18:16;2.73;;;1.40;;
60730;SDS011;46580;52.114;11.674;2023-03-16T07:20:41;6.40;;;2.50;;
60730;SDS011;46580;52.114;11.674;2023-03-16T07:23:07;3.40;;;2.00;;
60730;SDS011;46580;52.114;11.674;2023-03-16T07:25:32;3.87;;;2.03;;
60730;SDS011;46580;52.114;11.674;2023-03-16T07:27:58;6.13;;;1.90;;
60730;SDS011;46580;52.114;11.674;2023-03-16T07:30:25;5.43;;;1.90;;
60730;SDS011;46580;52.114;11.674;2023-03-16T07:32:51;3.37;;;2.37;;
60730;SDS011;46580;52.114;11.674;2023-03-16T07:35:16;3.33;;;2.10;;
60730;SDS011;46580;52.114;11.674;2023-03-16T07:37:42;3.87;;;1.93;;
60730;SDS011;46580;52.114;11.674;2023-03-16T07:40:09;4.07;;;2.27;;
60730;SDS011;46580;52.114;11.674;2023-03-16T07:42:35;4.47;;;2.17;;
60730;SDS011;46580;52.114;11.674;2023-03-16T07:45:02;5.10;;;2.27;;
60730;SDS011;46580;52.114;11.674;2023-03-16T07:47:28;7.07;;;2.90;;
60730;SDS011;46580;52.114;11.674;2023-03-16T07:49:55;6.63;;;2.40;;
60730;SDS011;46580;52.114;11.674;2023-03-16T07:52:21;5.17;;;2.20;;
60730;SDS011;46580;52.114;11.674;2023-03-16T07:54:48;7.43;;;2.47;;
60730;SDS011;46580;52.114;11.674;2023-03-16T07:57:13;6.57;;;2.33;;
60730;SDS011;46580;52.114;11.674;2023-03-16T07:59:39;7.60;;;2.77;;
60730;SDS011;46580;52.114;11.674;2023-03-16T08:02:05;4.97;;;2.20;;
60730;SDS011;46580;52.114;11.674;2023-03-16T08:04:35;3.63;;;2.10;;
60730;SDS011;46580;52.114;11.674;2023-03-16T08:07:01;5.13;;;2.10;;
60730;SDS011;46580;52.114;11.674;2023-03-16T08:09:27;3.63;;;2.37;;
60730;SDS011;46580;52.114;11.674;2023-03-16T08:11:53;9.13;;;2.90;;
60730;SDS011;46580;52.114;11.674;2023-03-16T08:14:19;5.13;;;2.37;;
60730;SDS011;46580;52.114;11.674;2023-03-16T08:16:45;5.73;;;2.50;;
60730;SDS011;46580;52.114;11.674;2023-03-16T08:19:14;4.37;;;2.20;;
60730;SDS011;46580;52.114;11.674;2023-03-16T08:21:41;6.13;;;2.13;;
60730;SDS011;46580;52.114;11.674;2023-03-16T08:24:07;6.10;;;2.13;;
60730;SDS011;46580;52.114;11.674;2023-03-16T08:26:33;8.53;;;2.33;;
60730;SDS011;46580;52.114;11.674;2023-03-16T08:28:58;7.33;;;2.17;;
60730;SDS011;46580;52.114;11.674;2023-03-16T08:31:27;4.90;;;1.93;;
60730;SDS011;46580;52.114;11.674;2023-03-16T08:33:55;7.63;;;2.13;;
60730;SDS011;46580;52.114;11.674;2023-03-16T08:36:21;4.80;;;2.10;;
60730;SDS011;46580;52.114;11.674;2023-03-16T08:38:47;7.77;;;2.63;;
60730;SDS011;46580;52.114;11.674;2023-03-16T08:41:13;4.67;;;2.33;;
60730;SDS011;46580;52.114;11.674;2023-03-16T08:43:41;4.70;;;2.50;;
60730;SDS011;46580;52.114;11.674;2023-03-16T08:46:06;5.80;;;2.23;;
60730;SDS011;46580;52.114;11.674;2023-03-16T08:48:32;3.50;;;2.00;;
60730;SDS011;46580;52.114;11.674;2023-03-16T08:51:01;3.47;;;1.90;;
60730;SDS011;46580;52.114;11.674;2023-03-16T08:53:27;4.27;;;2.00;;
60730;SDS011;46580;52.114;11.674;2023-03-16T08:56:14;4.93;;;2.23;;
60730;SDS011;46580;52.114;11.674;2023-03-16T08:58:39;3.00;;;1.93;;
60730;SDS011;46580;52.114;11.674;2023-03-16T09:01:10;4.60;;;2.30;;
60730;SDS011;46580;52.114;11.674;2023-03-16T09:03:37;5.17;;;2.23;;
60730;SDS011;46580;52.114;11.674;2023-03-16T09:06:05;3.80;;;2.00;;
60730;SDS011;46580;52.114;11.674;2023-03-16T09:08:33;6.17;;;2.40;;
60730;SDS011;46580;52.114;11.674;2023-03-16T09:11:04;5.03;;;1.87;;
60730;SDS011;46580;52.114;11.674;2023-03-16T09:13:31;5.03;;;2.30;;
60730;SDS011;46580;52.114;11.674;2023-03-16T09:15:58;5.63;;;2.13;;
60730;SDS011;46580;52.114;11.674;2023-03-16T09:18:24;2.83;;;1.60;;
60730;SDS011;46580;52.114;11.674;2023-03-16T09:20:51;4.40;;;1.93;;
60730;SDS011;46580;52.114;11.674;2023-03-16T09:23:21;5.97;;;1.80;;
60730;SDS011;46580;52.114;11.674;2023-03-16T09:25:46;1.87;;;1.40;;
60730;SDS011;46580;52.114;11.674;2023-03-16T09:28:12;4.63;;;1.90;;
60730;SDS011;46580;52.114;11.674;2023-03-16T09:30:37;4.23;;;1.40;;
60730;SDS011;46580;52.114;11.674;2023-03-16T09:33:03;4.80;;;1.40;;
60730;SDS011;46580;52.114;11.674;2023-03-16T09:35:30;6.40;;;1.30;;
60730;SDS011;46580;52.114;11.674;2023-03-16T09:37:56;1.90;;;0.93;;
60730;SDS011;46580;52.114;11.674;2023-03-16T09:40:22;3.43;;;1.40;;
60730;SDS011;46580;52.114;11.674;2023-03-16T09:42:54;5.43;;;1.47;;
60730;SDS011;46580;52.114;11.674;2023-03-16T09:45:25;4.40;;;1.80;;
60730;SDS011;46580;52.114;11.674;2023-03-16T09:48:15;5.77;;;2.17;;
60730;SDS011;46580;52.114;11.674;2023-03-16T09:50:42;4.17;;;1.53;;
60730;SDS011;46580;52.114;11.674;2023-03-16T09:53:21;5.80;;;1.73;;
60730;SDS011;46580;52.114;11.674;2023-03-16T09:58:45;4.63;;;1.60;;
60730;SDS011;46580;52.114;11.674;2023-03-16T10:07:00;2.10;;;1.10;;
60730;SDS011;46580;52.114;11.674;2023-03-16T10:09:41;10.63;;;1.53;;
60730;SDS011;46580;52.114;11.674;2023-03-16T10:12:13;2.67;;;1.23;;
60730;SDS011;46580;52.114;11.674;2023-03-16T10:17:34;3.67;;;1.27;;
60730;SDS011;46580;52.114;11.674;2023-03-16T10:20:06;1.57;;;1.00;;
60730;SDS011;46580;52.114;11.674;2023-03-16T10:22:37;2.70;;;0.83;;
60730;SDS011;46580;52.114;11.674;2023-03-16T10:25:08;4.57;;;1.00;;
60730;SDS011;46580;52.114;11.674;2023-03-16T10:27:39;3.03;;;1.00;;
60730;SDS011;46580;52.114;11.674;2023-03-16T10:32:53;2.67;;;1.10;;
60730;SDS011;46580;52.114;11.674;2023-03-16T10:41:03;3.03;;;0.73;;
60730;SDS011;46580;52.114;11.674;2023-03-16T10:43:44;3.73;;;1.30;;
60730;SDS011;46580;52.114;11.674;2023-03-16T10:46:12;4.50;;;0.83;;
60730;SDS011;46580;52.114;11.674;2023-03-16T10:48:38;3.50;;;0.87;;
60730;SDS011;46580;52.114;11.674;2023-03-16T10:51:15;1.17;;;0.70;;
60730;SDS011;46580;52.114;11.674;2023-03-16T10:53:44;2.17;;;0.73;;
60730;SDS011;46580;52.114;11.674;2023-03-16T10:56:11;4.13;;;0.90;;
60730;SDS011;46580;52.114;11.674;2023-03-16T10:58:43;2.07;;;0.60;;
60730;SDS011;46580;52.114;11.674;2023-03-16T11:01:17;5.87;;;1.10;;
60730;SDS011;46580;52.114;11.674;2023-03-16T11:03:51;3.17;;;0.60;;
60730;SDS011;46580;52.114;11.674;2023-03-16T11:06:20;3.00;;;0.70;;
60730;SDS011;46580;52.114;11.674;2023-03-16T11:09:03;3.43;;;0.60;;
60730;SDS011;46580;52.114;11.674;2023-03-16T11:11:32;1.97;;;0.60;;
60730;SDS011;46580;52.114;11.674;2023-03-16T11:14:01;2.80;;;0.73;;
60730;SDS011;46580;52.114;11.674;2023-03-16T11:16:30;3.40;;;0.67;;
60730;SDS011;46580;52.114;11.674;2023-03-16T11:28:04;1.67;;;0.60;;
60730;SDS011;46580;52.114;11.674;2023-03-16T11:29:58;3.80;;;0.80;;
60730;SDS011;46580;52.114;11.674;2023-03-16T11:32:33;3.97;;;0.70;;
60730;SDS011;46580;52.114;11.674;2023-03-16T11:35:05;4.50;;;0.80;;
60730;SDS011;46580;52.114;11.674;2023-03-16T11:46:12;2.63;;;0.80;;
60730;SDS011;46580;52.114;11.674;2023-03-16T11:48:48;1.93;;;0.57;;
60730;SDS011;46580;52.114;11.674;2023-03-16T11:52:07;4.40;;;1.10;;
60730;SDS011;46580;52.114;11.674;2023-03-16T11:56:58;2.50;;;1.00;;
60730;SDS011;46580;52.114;11.674;2023-03-16T12:03:12;2.63;;;0.60;;
60730;SDS011;46580;52.114;11.674;2023-03-16T12:11:01;2.40;;;0.50;;
60730;SDS011;46580;52.114;11.674;2023-03-16T12:18:57;4.83;;;0.90;;
60730;SDS011;46580;52.114;11.674;2023-03-16T12:21:29;1.97;;;0.80;;
60730;SDS011;46580;52.114;11.674;2023-03-16T12:24:02;2.77;;;0.63;;
60730;SDS011;46580;52.114;11.674;2023-03-16T12:26:33;3.13;;;0.80;;
60730;SDS011;46580;52.114;11.674;2023-03-16T12:29:06;1.23;;;0.80;;
60730;SDS011;46580;52.114;11.674;2023-03-16T12:31:49;2.33;;;0.73;;
60730;SDS011;46580;52.114;11.674;2023-03-16T12:34:28;4.43;;;0.87;;
60730;SDS011;46580;52.114;11.674;2023-03-16T12:37:00;1.87;;;0.70;;
60730;SDS011;46580;52.114;11.674;2023-03-16T12:42:41;1.57;;;0.77;;
60730;SDS011;46580;52.114;11.674;2023-03-16T12:45:32;3.33;;;0.80;;
60730;SDS011;46580;52.114;11.674;2023-03-16T12:50:55;2.83;;;0.83;;
60730;SDS011;46580;52.114;11.674;2023-03-16T12:53:28;2.90;;;0.60;;
60730;SDS011;46580;52.114;11.674;2023-03-16T12:56:07;2.40;;;0.77;;
60730;SDS011;46580;52.114;11.674;2023-03-16T12:58:34;1.97;;;0.67;;
60730;SDS011;46580;52.114;11.674;2023-03-16T13:01:07;1.40;;;0.60;;
60730;SDS011;46580;52.114;11.674;2023-03-16T13:03:35;1.33;;;0.67;;
60730;SDS011;46580;52.114;11.674;2023-03-16T13:06:01;1.50;;;0.70;;
60730;SDS011;46580;52.114;11.674;2023-03-16T13:08:27;2.77;;;0.90;;
60730;SDS011;46580;52.114;11.674;2023-03-16T13:11:10;2.07;;;0.70;;
60730;SDS011;46580;52.114;11.674;2023-03-16T13:13:48;2.47;;;0.73;;
60730;SDS011;46580;52.114;11.674;2023-03-16T13:18:52;2.23;;;0.70;;
60730;SDS011;46580;52.114;11.674;2023-03-16T13:21:36;2.00;;;0.87;;
60730;SDS011;46580;52.114;11.674;2023-03-16T13:29:22;3.47;;;0.83;;
60730;SDS011;46580;52.114;11.674;2023-03-16T13:31:48;2.80;;;0.90;;
60730;SDS011;46580;52.114;11.674;2023-03-16T13:34:18;3.33;;;0.90;;
60730;SDS011;46580;52.114;11.674;2023-03-16T13:36:47;2.90;;;1.10;;
60730;SDS011;46580;52.114;11.674;2023-03-16T13:39:17;3.50;;;1.10;;
60730;SDS011;46580;52.114;11.674;2023-03-16T13:42:32;4.10;;;1.00;;
60730;SDS011;46580;52.114;11.674;2023-03-16T13:44:37;4.63;;;0.87;;
60730;SDS011;46580;52.114;11.674;2023-03-16T13:47:05;1.93;;;0.60;;
60730;SDS011;46580;52.114;11.674;2023-03-16T13:49:31;3.03;;;0.77;;
60730;SDS011;46580;52.114;11.674;2023-03-16T13:51:57;3.30;;;1.00;;
60730;SDS011;46580;52.114;11.674;2023-03-16T13:54:26;3.77;;;1.17;;
60730;SDS011;46580;52.114;11.674;2023-03-16T13:57:03;6.07;;;1.40;;
60730;SDS011;46580;52.114;11.674;2023-03-16T13:59:35;3.13;;;0.90;;
60730;SDS011;46580;52.114;11.674;2023-03-16T14:02:08;4.50;;;1.40;;
60730;SDS011;46580;52.114;11.674;2023-03-16T14:04:43;7.37;;;1.40;;
60730;SDS011;46580;52.114;11.674;2023-03-16T14:07:16;2.90;;;1.40;;
60730;SDS011;46580;52.114;11.674;2023-03-16T14:09:43;2.77;;;1.17;;
60730;SDS011;46580;52.114;11.674;2023-03-16T14:12:13;4.17;;;1.40;;
60730;SDS011;46580;52.114;11.674;2023-03-16T14:14:40;4.47;;;1.70;;
60730;SDS011;46580;52.114;11.674;2023-03-16T14:17:11;2.63;;;1.13;;
60730;SDS011;46580;52.114;11.674;2023-03-16T14:19:41;6.17;;;1.40;;
60730;SDS011;46580;52.114;11.674;2023-03-16T14:22:11;5.90;;;2.20;;
60730;SDS011;46580;52.114;11.674;2023-03-16T14:24:39;3.40;;;1.50;;
60730;SDS011;46580;52.114;11.674;2023-03-16T14:29:43;4.23;;;1.33;;
60730;SDS011;46580;52.114;11.674;2023-03-16T14:32:20;2.87;;;1.00;;
60730;SDS011;46580;52.114;11.674;2023-03-16T14:34:51;2.13;;;1.40;;
60730;SDS011;46580;52.114;11.674;2023-03-16T14:37:17;3.47;;;1.17;;
60730;SDS011;46580;52.114;11.674;2023-03-16T14:39:43;2.90;;;1.40;;
60730;SDS011;46580;52.114;11.674;2023-03-16T14:42:20;2.50;;;0.80;;
60730;SDS011;46580;52.114;11.674;2023-03-16T14:44:52;3.43;;;0.90;;
60730;SDS011;46580;52.114;11.674;2023-03-16T14:47:23;2.63;;;1.00;;
60730;SDS011;46580;52.114;11.674;2023-03-16T14:49:51;3.73;;;0.90;;
60730;SDS011;46580;52.114;11.674;2023-03-16T14:52:22;2.80;;;0.90;;
60730;SDS011;46580;52.114;11.674;2023-03-16T14:54:51;3.53;;;1.10;;
60730;SDS011;46580;52.114;11.674;2023-03-16T14:57:19;4.00;;;1.23;;
60730;SDS011;46580;52.114;11.674;2023-03-16T14:59:45;3.13;;;1.10;;
60730;SDS011;46580;52.114;11.674;2023-03-16T15:02:30;1.40;;;1.00;;
60730;SDS011;46580;52.114;11.674;2023-03-16T15:04:58;4.13;;;1.40;;
60730;SDS011;46580;52.114;11.674;2023-03-16T15:07:31;2.50;;;1.00;;
60730;SDS011;46580;52.114;11.674;2023-03-16T15:10:05;2.83;;;1.00;;
60730;SDS011;46580;52.114;11.674;2023-03-16T15:12:40;3.40;;;1.70;;
60730;SDS011;46580;52.114;11.674;2023-03-16T15:15:15;3.40;;;1.00;;
60730;SDS011;46580;52.114;11.674;2023-03-16T15:17:44;5.33;;;1.07;;
60730;SDS011;46580;52.114;11.674;2023-03-16T15:20:14;2.43;;;1.43;;
60730;SDS011;46580;52.114;11.674;2023-03-16T15:22:42;3.40;;;1.33;;
60730;SDS011;46580;52.114;11.674;2023-03-16T15:25:19;4.73;;;1.60;;
60730;SDS011;46580;52.114;11.674;2023-03-16T15:28:00;3.13;;;1.43;;
60730;SDS011;46580;52.114;11.674;2023-03-16T15:30:27;4.67;;;1.20;;
60730;SDS011;46580;52.114;11.674;2023-03-16T15:32:54;3.67;;;1.30;;
60730;SDS011;46580;52.114;11.674;2023-03-16T15:35:20;5.33;;;1.37;;
60730;SDS011;46580;52.114;11.674;2023-03-16T15:37:46;4.17;;;1.10;;
60730;SDS011;46580;52.114;11.674;2023-03-16T15:40:15;3.93;;;1.07;;
60730;SDS011;46580;52.114;11.674;2023-03-16T15:42:49;2.67;;;0.80;;
60730;SDS011;46580;52.114;11.674;2023-03-16T15:45:16;3.77;;;1.67;;
60730;SDS011;46580;52.114;11.674;2023-03-16T15:47:45;1.83;;;1.00;;
60730;SDS011;46580;52.114;11.674;2023-03-16T15:50:15;1.67;;;0.90;;
60730;SDS011;46580;52.114;11.674;2023-03-16T15:52:45;2.47;;;1.03;;
60730;SDS011;46580;52.114;11.674;2023-03-16T15:55:33;2.00;;;0.70;;
60730;SDS011;46580;52.114;11.674;2023-03-16T15:58:08;0.93;;;0.60;;
60730;SDS011;46580;52.114;11.674;2023-03-16T16:00:57;2.13;;;0.50;;
60730;SDS011;46580;52.114;11.674;2023-03-16T16:03:24;1.60;;;0.50;;